createdAt,value
2019-05-11T00:02:16.771Z,9.00
2019-05-11T00:04:49.380Z,9.10
2019-05-11T00:07:44.367Z,9.20
2019-05-11T00:10:18.803Z,9.20
2019-05-11T00:12:48.463Z,9.20
2019-05-11T00:15:18.144Z,9.20
2019-05-11T00:17:50.619Z,9.10
2019-05-11T00:20:42.805Z,9.10
2019-05-11T00:22:51.649Z,9.20
2019-05-11T00:25:21.230Z,9.10
2019-05-11T00:27:50.713Z,9.00
2019-05-11T00:30:20.343Z,8.90
2019-05-11T00:32:49.888Z,8.90
2019-05-11T00:35:19.489Z,8.90
2019-05-11T00:37:49.039Z,8.90
2019-05-11T00:40:18.711Z,8.90
2019-05-11T00:42:48.280Z,8.90
2019-05-11T00:45:17.931Z,9.00
2019-05-11T00:47:47.526Z,9.00
2019-05-11T00:50:17.083Z,9.00
2019-05-11T00:52:46.944Z,9.10
2019-05-11T00:55:16.723Z,9.10
2019-05-11T00:58:09.815Z,9.00
2019-05-11T01:00:39.368Z,9.10
2019-05-11T01:03:08.944Z,9.20
2019-05-11T01:05:38.492Z,9.20
2019-05-11T01:08:08.093Z,9.20
2019-05-11T01:10:42.100Z,9.20
2019-05-11T01:13:09.040Z,9.10
2019-05-11T01:15:38.638Z,9.00
2019-05-11T01:18:08.161Z,8.90
2019-05-11T01:20:37.758Z,8.90
2019-05-11T01:23:07.392Z,8.90
2019-05-11T01:25:37.079Z,9.00
2019-05-11T01:28:06.627Z,8.90
2019-05-11T01:30:38.688Z,8.90
2019-05-11T01:33:07.347Z,9.00
2019-05-11T01:35:37.009Z,8.90
2019-05-11T01:38:06.630Z,9.00
2019-05-11T01:40:36.194Z,9.00
2019-05-11T01:43:05.777Z,9.00
2019-05-11T01:45:35.627Z,9.00
2019-05-11T01:48:05.166Z,9.00
2019-05-11T01:50:34.697Z,8.90
2019-05-11T01:53:04.266Z,8.90
2019-05-11T01:55:33.824Z,8.90
2019-05-11T01:58:03.351Z,8.90
2019-05-11T02:00:32.906Z,8.90
2019-05-11T02:03:02.376Z,8.90
2019-05-11T02:05:32.111Z,9.00
2019-05-11T02:08:02.654Z,9.10
2019-05-11T02:10:32.430Z,9.00
2019-05-11T02:13:01.938Z,8.90
2019-05-11T02:15:31.594Z,9.00
2019-05-11T02:18:01.231Z,9.00
2019-05-11T02:20:30.802Z,8.90
2019-05-11T02:23:00.291Z,8.90
2019-05-11T02:25:29.788Z,8.90
2019-05-11T02:27:59.301Z,8.90
2019-05-11T02:30:28.908Z,8.90
2019-05-11T02:32:58.526Z,8.90
2019-05-11T02:35:28.240Z,8.90
2019-05-11T02:37:57.759Z,9.00
2019-05-11T02:40:27.347Z,9.00
2019-05-11T02:42:56.852Z,9.10
2019-05-11T02:45:39.670Z,9.10
2019-05-11T02:48:09.194Z,9.10
2019-05-11T02:50:39.491Z,9.20
2019-05-11T02:53:09.690Z,9.20
2019-05-11T02:55:39.966Z,9.10
2019-05-11T02:58:09.715Z,9.10
2019-05-11T03:00:43.310Z,9.00
2019-05-11T03:03:12.970Z,9.00
2019-05-11T03:05:42.552Z,9.00
2019-05-11T03:08:12.145Z,9.00
2019-05-11T03:10:41.784Z,9.00
2019-05-11T03:13:11.293Z,9.00
2019-05-11T03:15:40.862Z,9.00
2019-05-11T03:18:10.479Z,8.90
2019-05-11T03:20:40.015Z,8.90
2019-05-11T03:23:09.694Z,8.90
2019-05-11T03:25:39.260Z,8.90
2019-05-11T03:28:08.766Z,8.90
2019-05-11T03:30:38.458Z,8.90
2019-05-11T03:33:08.049Z,8.90
2019-05-11T03:35:37.646Z,8.80
2019-05-11T03:38:07.189Z,8.90
2019-05-11T03:40:36.860Z,8.90
2019-05-11T03:43:06.421Z,8.80
2019-05-11T03:45:36.065Z,8.90
2019-05-11T03:48:05.748Z,8.90
2019-05-11T03:50:35.400Z,8.90
2019-05-11T03:53:05.139Z,8.80
2019-05-11T03:55:34.739Z,8.80
2019-05-11T03:58:04.332Z,8.70
2019-05-11T04:00:33.931Z,8.70
2019-05-11T04:03:03.460Z,8.70
2019-05-11T04:05:33.255Z,8.70
2019-05-11T04:08:02.762Z,8.90
2019-05-11T04:10:32.385Z,8.90
2019-05-11T04:13:01.875Z,8.90
2019-05-11T04:15:31.363Z,8.90
2019-05-11T04:18:00.870Z,8.90
2019-05-11T04:20:30.278Z,8.80
2019-05-11T04:22:59.765Z,8.80
2019-05-11T04:25:29.349Z,8.80
2019-05-11T04:27:58.873Z,8.80
2019-05-11T04:30:28.491Z,8.80
2019-05-11T04:32:57.963Z,8.70
2019-05-11T04:35:27.633Z,8.70
2019-05-11T04:38:13.114Z,8.70
2019-05-11T04:40:42.747Z,8.70
2019-05-11T04:43:12.338Z,8.70
2019-05-11T04:45:41.823Z,8.80
2019-05-11T04:48:11.329Z,8.90
2019-05-11T04:50:41.023Z,8.90
2019-05-11T04:53:10.574Z,8.80
2019-05-11T04:55:40.150Z,8.80
2019-05-11T04:58:09.639Z,8.90
2019-05-11T05:00:39.241Z,9.00
2019-05-11T05:03:10.057Z,8.90
2019-05-11T05:05:39.599Z,8.90
2019-05-11T05:08:10.120Z,8.80
2019-05-11T05:10:39.669Z,8.80
2019-05-11T05:13:10.905Z,8.90
2019-05-11T05:15:42.587Z,8.90
2019-05-11T05:18:12.186Z,8.90
2019-05-11T05:20:43.769Z,8.80
2019-05-11T05:23:13.015Z,8.80
2019-05-11T05:25:42.578Z,8.80
2019-05-11T05:28:12.217Z,8.90
2019-05-11T05:30:41.732Z,9.00
2019-05-11T05:33:11.413Z,9.10
2019-05-11T05:35:41.132Z,9.10
2019-05-11T05:38:11.213Z,9.30
2019-05-11T05:40:40.767Z,9.40
2019-05-11T05:43:24.377Z,9.50
2019-05-11T05:45:41.903Z,9.40
2019-05-11T05:48:12.064Z,9.50
2019-05-11T05:50:41.676Z,9.50
2019-05-11T05:53:11.213Z,9.70
2019-05-11T05:55:40.746Z,10.00
2019-05-11T05:58:10.354Z,10.20
2019-05-11T06:00:39.947Z,10.40
2019-05-11T06:03:09.441Z,10.60
2019-05-11T06:05:40.857Z,10.50
2019-05-11T06:08:10.440Z,10.60
2019-05-11T06:10:39.944Z,10.70
2019-05-11T06:13:09.674Z,10.60
2019-05-11T06:15:39.277Z,10.70
2019-05-11T06:18:08.836Z,10.60
2019-05-11T06:20:38.331Z,10.50
2019-05-11T06:23:08.027Z,10.50
2019-05-11T06:25:37.523Z,10.60
2019-05-11T06:28:07.185Z,10.70
2019-05-11T06:30:37.027Z,10.90
2019-05-11T06:33:06.766Z,10.90
2019-05-11T06:35:36.560Z,10.90
2019-05-11T06:38:06.272Z,10.90
2019-05-11T06:40:36.195Z,10.80
2019-05-11T06:43:06.956Z,10.80
2019-05-11T06:45:36.674Z,10.70
2019-05-11T06:48:06.321Z,10.60
2019-05-11T06:50:35.948Z,10.60
2019-05-11T06:53:05.706Z,10.60
2019-05-11T06:55:35.299Z,10.60
2019-05-11T06:58:05.235Z,10.60
2019-05-11T07:00:35.313Z,10.60
2019-05-11T07:03:05.087Z,10.50
2019-05-11T07:05:40.575Z,10.50
2019-05-11T07:08:10.121Z,10.60
2019-05-11T07:21:56.376Z,10.80
2019-05-11T07:24:25.863Z,10.90
2019-05-11T07:26:55.453Z,11.20
2019-05-11T07:29:24.918Z,11.40
2019-05-11T07:31:54.626Z,11.50
2019-05-11T07:34:24.143Z,11.60
2019-05-11T07:36:53.631Z,11.60
2019-05-11T07:39:23.129Z,11.30
2019-05-11T07:41:52.657Z,11.30
2019-05-11T07:44:34.909Z,11.30
2019-05-11T07:46:53.357Z,11.40
2019-05-11T07:49:25.900Z,11.60
2019-05-11T07:51:58.546Z,11.70
2019-05-11T07:54:28.206Z,11.70
2019-05-11T07:57:01.974Z,11.90
2019-05-11T07:59:31.559Z,11.80
2019-05-11T08:02:01.103Z,11.80
2019-05-11T08:04:30.612Z,11.80
2019-05-11T08:07:00.116Z,12.00
2019-05-11T08:09:29.583Z,12.10
2019-05-11T08:11:59.138Z,12.00
2019-05-11T08:14:28.948Z,12.10
2019-05-11T08:16:59.347Z,12.30
2019-05-11T08:19:29.203Z,12.20
2019-05-11T08:21:58.786Z,12.20
2019-05-11T08:24:28.590Z,12.10
2019-05-11T08:26:58.452Z,11.90
2019-05-11T08:29:28.095Z,12.10
2019-05-11T08:31:58.069Z,12.20
2019-05-11T08:34:28.599Z,12.10
2019-05-11T08:36:58.545Z,12.00
2019-05-11T08:39:28.842Z,12.20
2019-05-11T08:41:59.147Z,12.30
2019-05-11T08:44:30.789Z,12.20
2019-05-11T08:47:00.368Z,11.90
2019-05-11T08:49:30.822Z,12.20
2019-05-11T08:52:00.974Z,12.40
2019-05-11T08:54:30.951Z,12.40
2019-05-11T08:57:00.982Z,12.30
2019-05-11T08:59:31.139Z,12.30
2019-05-11T09:02:00.987Z,12.40
2019-05-11T09:04:30.919Z,12.40
2019-05-11T09:07:00.816Z,12.40
2019-05-11T09:09:33.579Z,12.40
2019-05-11T09:12:07.730Z,12.50
2019-05-11T09:14:35.771Z,12.50
2019-05-11T09:17:07.818Z,12.60
2019-05-11T09:19:40.762Z,12.80
2019-05-11T09:22:12.658Z,12.70
2019-05-11T09:24:42.754Z,12.60
2019-05-11T09:27:13.458Z,12.60
2019-05-11T09:29:44.057Z,12.50
2019-05-11T09:32:33.235Z,12.70
2019-05-11T09:35:22.597Z,12.70
2019-05-11T09:37:52.763Z,12.70
2019-05-11T09:40:22.743Z,12.60
2019-05-11T09:42:52.894Z,12.80
2019-05-11T09:45:23.675Z,13.00
2019-05-11T09:47:55.087Z,12.50
2019-05-11T09:50:28.340Z,12.60
2019-05-11T09:52:58.302Z,12.60
2019-05-11T09:55:28.366Z,12.50
2019-05-11T09:57:58.600Z,12.40
2019-05-11T10:00:30.247Z,12.50
2019-05-11T10:03:00.456Z,12.50
2019-05-11T10:05:30.102Z,12.60
2019-05-11T10:08:00.124Z,12.50
2019-05-11T10:10:29.522Z,12.40
2019-05-11T10:12:59.273Z,12.40
2019-05-11T10:16:03.638Z,12.50
2019-05-11T10:18:23.779Z,12.50
2019-05-11T10:20:54.478Z,12.60
2019-05-11T10:23:43.737Z,12.60
2019-05-11T10:26:13.243Z,12.70
2019-05-11T10:28:48.174Z,12.60
2019-05-11T10:31:18.026Z,12.40
2019-05-11T10:33:52.176Z,12.40
2019-05-11T10:36:22.837Z,12.40
2019-05-11T10:38:52.455Z,12.50
2019-05-11T10:41:21.937Z,12.50
2019-05-11T10:43:51.407Z,12.60
2019-05-11T10:46:23.509Z,12.70
2019-05-11T10:48:52.070Z,12.90
2019-05-11T10:51:21.553Z,13.00
2019-05-11T10:53:52.119Z,12.80
2019-05-11T10:56:21.701Z,12.80
2019-05-11T10:58:51.199Z,12.90
2019-05-11T11:01:20.718Z,13.10
2019-05-11T11:03:50.220Z,13.40
2019-05-11T11:06:19.641Z,13.20
2019-05-11T11:08:49.190Z,13.20
2019-05-11T11:11:18.744Z,13.30
2019-05-11T11:13:48.325Z,13.00
2019-05-11T11:16:35.083Z,13.00
2019-05-11T11:18:49.004Z,13.10
2019-05-11T11:21:22.526Z,13.00
2019-05-11T11:23:49.808Z,13.00
2019-05-11T11:26:19.383Z,12.80
2019-05-11T11:29:11.038Z,12.60
2019-05-11T11:31:41.472Z,12.70
2019-05-11T11:34:11.204Z,12.60
2019-05-11T11:36:40.727Z,12.60
2019-05-11T11:39:10.266Z,12.50
2019-05-11T11:41:39.888Z,12.40
2019-05-11T11:44:09.521Z,12.50
2019-05-11T11:46:50.809Z,12.50
2019-05-11T11:49:10.266Z,12.60
2019-05-11T11:51:39.807Z,12.50
2019-05-11T11:54:09.288Z,12.60
2019-05-11T11:56:38.863Z,12.80
2019-05-11T11:59:11.550Z,12.90
2019-05-11T12:01:41.275Z,13.30
2019-05-11T12:04:10.832Z,13.30
2019-05-11T12:06:40.658Z,13.20
2019-05-11T12:09:10.386Z,13.10
2019-05-11T12:11:40.346Z,13.20
2019-05-11T12:14:10.190Z,13.40
2019-05-11T12:16:39.716Z,13.60
2019-05-11T12:19:09.276Z,13.40
2019-05-11T12:21:38.860Z,13.50
2019-05-11T12:24:08.900Z,13.50
2019-05-11T12:26:38.897Z,13.50
2019-05-11T12:29:08.609Z,13.60
2019-05-11T12:31:59.250Z,13.70
2019-05-11T12:34:29.237Z,13.70
2019-05-11T12:36:59.592Z,13.80
2019-05-11T12:39:29.685Z,14.00
2019-05-11T12:42:00.152Z,14.20
2019-05-11T12:44:30.286Z,14.40
2019-05-11T12:47:01.353Z,14.50
2019-05-11T12:49:31.351Z,14.40
2019-05-11T12:52:01.608Z,14.40
2019-05-11T12:54:34.514Z,14.40
2019-05-11T12:57:05.017Z,14.50
2019-05-11T12:59:34.902Z,14.70
2019-05-11T13:02:05.295Z,14.80
2019-05-11T13:04:35.242Z,14.80
2019-05-11T13:07:05.190Z,14.80
2019-05-11T13:09:34.719Z,14.90
2019-05-11T13:12:04.299Z,15.40
2019-05-11T13:14:33.833Z,15.70
2019-05-11T13:17:03.375Z,15.70
2019-05-11T13:19:32.908Z,15.60
2019-05-11T13:22:02.424Z,15.40
2019-05-11T13:24:32.006Z,15.50
2019-05-11T13:27:01.618Z,15.60
2019-05-11T13:29:31.595Z,15.60
2019-05-11T13:32:01.188Z,15.50
2019-05-11T13:34:31.610Z,15.40
2019-05-11T13:37:02.406Z,15.50
2019-05-11T13:39:32.349Z,15.30
2019-05-11T13:42:01.835Z,15.40
2019-05-11T13:44:31.381Z,15.20
2019-05-11T13:47:00.847Z,15.10
2019-05-11T13:49:32.432Z,15.20
2019-05-11T13:52:01.757Z,15.30
2019-05-11T13:54:31.372Z,15.40
2019-05-11T13:57:00.915Z,15.50
2019-05-11T13:59:30.661Z,15.60
2019-05-11T14:02:00.397Z,15.70
2019-05-11T14:04:29.883Z,15.70
2019-05-11T14:06:59.393Z,15.60
2019-05-11T14:09:29.054Z,15.70
2019-05-11T14:11:58.599Z,16.00
2019-05-11T14:14:29.008Z,15.90
2019-05-11T14:16:58.987Z,16.00
2019-05-11T14:19:29.178Z,15.80
2019-05-11T14:21:59.002Z,15.90
2019-05-11T14:24:28.919Z,15.80
2019-05-11T14:26:58.646Z,15.60
2019-05-11T14:29:28.550Z,15.50
2019-05-11T14:31:58.222Z,15.40
2019-05-11T14:34:48.435Z,15.10
2019-05-11T14:37:18.246Z,14.90
2019-05-11T14:39:48.291Z,14.90
2019-05-11T14:42:22.115Z,14.90
2019-05-11T14:44:48.938Z,14.90
2019-05-11T14:47:19.466Z,15.00
2019-05-11T14:49:49.141Z,15.30
2019-05-11T14:52:20.591Z,15.20
2019-05-11T14:54:50.200Z,15.20
2019-05-11T14:57:19.715Z,15.30
2019-05-11T14:59:49.348Z,15.10
2019-05-11T15:02:40.235Z,15.10
2019-05-11T15:05:18.379Z,15.20
2019-05-11T15:07:52.390Z,15.10
2019-05-11T15:10:22.674Z,15.00
2019-05-11T15:12:53.812Z,14.80
2019-05-11T15:15:24.996Z,14.90
2019-05-11T15:17:57.962Z,15.10
2019-05-11T15:20:28.529Z,15.30
2019-05-11T15:22:58.340Z,15.30
2019-05-11T15:25:28.912Z,15.20
2019-05-11T15:27:58.624Z,15.10
2019-05-11T15:30:28.866Z,15.00
2019-05-11T15:32:58.871Z,14.90
2019-05-11T15:35:28.710Z,15.00
2019-05-11T15:37:58.406Z,15.00
2019-05-11T15:40:28.117Z,14.90
2019-05-11T15:42:58.602Z,14.80
2019-05-11T15:45:28.373Z,14.50
2019-05-11T15:47:58.893Z,14.40
2019-05-11T15:50:31.514Z,14.30
2019-05-11T15:53:01.247Z,14.30
2019-05-11T15:55:30.681Z,14.40
2019-05-11T15:58:00.196Z,14.60
2019-05-11T16:00:29.889Z,14.80
2019-05-11T16:02:59.430Z,15.10
2019-05-11T16:05:28.974Z,15.20
2019-05-11T16:08:01.694Z,15.10
2019-05-11T16:10:30.431Z,14.90
2019-05-11T16:12:59.876Z,14.60
2019-05-11T16:15:29.374Z,14.50
2019-05-11T16:18:02.693Z,14.40
2019-05-11T16:20:32.473Z,14.50
2019-05-11T16:23:02.124Z,14.70
2019-05-11T16:25:31.712Z,14.90
2019-05-11T16:28:01.262Z,15.00
2019-05-11T16:30:30.801Z,15.10
2019-05-11T16:33:00.362Z,15.20
2019-05-11T16:35:29.834Z,15.30
2019-05-11T16:37:59.568Z,15.30
2019-05-11T16:40:29.649Z,15.30
2019-05-11T16:42:59.302Z,15.30
2019-05-11T16:45:28.837Z,15.20
2019-05-11T16:47:59.039Z,15.20
2019-05-11T16:50:28.673Z,15.10
2019-05-11T16:52:58.610Z,15.10
2019-05-11T16:55:28.295Z,15.00
2019-05-11T16:57:58.824Z,14.90
2019-05-11T17:00:28.547Z,14.80
2019-05-11T17:02:58.083Z,14.60
2019-05-11T17:05:33.360Z,14.70
2019-05-11T17:08:01.570Z,14.70
2019-05-11T17:10:31.231Z,14.90
2019-05-11T17:13:00.944Z,15.00
2019-05-11T17:15:30.910Z,15.50
2019-05-11T17:18:00.555Z,15.90
2019-05-11T17:20:30.400Z,16.40
2019-05-11T17:23:03.700Z,17.20
2019-05-11T17:25:37.781Z,17.60
2019-05-11T17:28:09.760Z,17.60
2019-05-11T17:30:38.757Z,17.40
2019-05-11T17:33:08.821Z,17.10
2019-05-11T17:35:38.390Z,17.00
2019-05-11T17:38:08.071Z,16.80
2019-05-11T17:40:37.902Z,16.50
2019-05-11T17:43:09.028Z,16.10
2019-05-11T17:45:38.800Z,15.60
2019-05-11T17:48:08.575Z,15.30
2019-05-11T17:50:38.466Z,15.10
2019-05-11T17:53:08.007Z,14.90
2019-05-11T17:55:38.286Z,14.70
2019-05-11T17:58:08.659Z,14.70
2019-05-11T18:00:39.233Z,14.60
2019-05-11T18:03:11.431Z,14.20
2019-05-11T18:05:41.118Z,14.00
2019-05-11T18:08:10.595Z,14.00
2019-05-11T18:10:40.068Z,14.00
2019-05-11T18:13:09.653Z,13.90
2019-05-11T18:15:39.159Z,13.70
2019-05-11T18:18:09.406Z,13.40
2019-05-11T18:20:39.321Z,13.10
2019-05-11T18:23:08.876Z,12.90
2019-05-11T18:25:38.986Z,12.70
2019-05-11T18:28:08.714Z,12.60
2019-05-11T18:30:38.820Z,12.50
2019-05-11T18:33:08.577Z,12.40
2019-05-11T18:35:38.139Z,12.40
2019-05-11T18:38:08.571Z,12.30
2019-05-11T18:40:38.449Z,12.30
2019-05-11T18:43:09.582Z,12.30
2019-05-11T18:45:39.055Z,12.20
2019-05-11T18:48:08.589Z,12.20
2019-05-11T18:50:38.645Z,12.10
2019-05-11T18:53:09.185Z,12.00
2019-05-11T18:55:38.903Z,11.90
2019-05-11T18:58:08.405Z,11.90
2019-05-11T19:00:38.239Z,11.80
2019-05-11T19:03:08.958Z,11.70
2019-05-11T19:05:38.730Z,11.60
2019-05-11T19:08:08.363Z,11.50
2019-05-11T19:10:38.400Z,11.40
2019-05-11T19:13:08.118Z,11.40
2019-05-11T19:15:38.899Z,11.30
2019-05-11T19:18:08.582Z,11.30
2019-05-11T19:20:45.595Z,11.20
2019-05-11T19:23:09.422Z,11.10
2019-05-11T19:25:38.975Z,11.10
2019-05-11T19:28:08.752Z,11.00
2019-05-11T19:30:38.501Z,10.90
2019-05-11T19:33:11.184Z,10.80
2019-05-11T19:35:39.434Z,10.80
2019-05-11T19:38:09.250Z,10.70
2019-05-11T19:40:38.849Z,10.60
2019-05-11T19:43:08.474Z,10.50
2019-05-11T19:45:38.586Z,10.50
2019-05-11T19:48:08.459Z,10.40
2019-05-11T19:50:40.989Z,10.30
2019-05-11T19:53:09.582Z,10.30
2019-05-11T19:55:39.103Z,10.20
2019-05-11T19:58:11.496Z,10.20
2019-05-11T20:00:41.062Z,10.10
2019-05-11T20:03:10.716Z,10.10
2019-05-11T20:05:40.222Z,10.00
2019-05-11T20:08:09.911Z,10.00
2019-05-11T20:10:39.542Z,9.90
2019-05-11T20:13:09.319Z,9.80
2019-05-11T20:15:38.951Z,9.80
2019-05-11T20:18:08.540Z,9.70
2019-05-11T20:20:38.147Z,9.70
2019-05-11T20:23:07.923Z,9.70
2019-05-11T20:25:38.113Z,9.60
2019-05-11T20:28:08.228Z,9.60
2019-05-11T20:30:37.835Z,9.50
2019-05-11T20:33:08.710Z,9.50
2019-05-11T20:35:38.435Z,9.40
2019-05-11T20:38:13.759Z,9.30
2019-05-11T20:40:44.006Z,9.30
2019-05-11T20:43:13.695Z,9.20
2019-05-11T20:45:43.382Z,9.20
2019-05-11T20:48:13.097Z,9.20
2019-05-11T20:50:42.630Z,9.20
2019-05-11T20:53:12.303Z,9.10
2019-05-11T20:55:41.865Z,9.10
2019-05-11T20:58:11.422Z,9.10
2019-05-11T21:00:41.097Z,9.10
2019-05-11T21:03:10.683Z,9.00
2019-05-11T21:05:40.170Z,9.00
2019-05-11T21:08:09.799Z,9.00
2019-05-11T21:10:39.319Z,8.90
2019-05-11T21:13:08.931Z,8.80
2019-05-11T21:15:38.668Z,8.80
2019-05-11T21:18:08.347Z,8.80
2019-05-11T21:20:38.212Z,8.70
2019-05-11T21:23:08.352Z,8.60
2019-05-11T21:25:37.988Z,8.60
2019-05-11T21:28:08.580Z,8.60
2019-05-11T21:30:40.083Z,8.60
2019-05-11T21:33:09.833Z,8.50
2019-05-11T21:35:39.486Z,8.50
2019-05-11T21:38:09.080Z,8.40
2019-05-11T21:40:38.692Z,8.50
2019-05-11T21:43:08.703Z,8.40
2019-05-11T21:45:40.784Z,8.40
2019-05-11T21:48:10.005Z,8.30
2019-05-11T21:50:39.515Z,8.30
2019-05-11T21:53:10.638Z,8.20
2019-05-11T21:55:40.491Z,8.20
2019-05-11T21:58:09.940Z,8.20
2019-05-11T22:00:39.808Z,8.10
2019-05-11T22:03:10.276Z,8.00
2019-05-11T22:05:39.997Z,8.10
2019-05-11T22:08:09.600Z,8.00
2019-05-11T22:10:39.262Z,8.00
2019-05-11T22:13:14.961Z,7.90
2019-05-11T22:15:44.495Z,7.80
2019-05-11T22:18:29.808Z,7.90
2019-05-11T22:20:45.197Z,7.80
2019-05-11T22:23:14.728Z,7.80
2019-05-11T22:25:44.257Z,7.80
2019-05-11T22:28:13.886Z,7.80
2019-05-11T22:30:43.409Z,7.70
2019-05-11T22:33:13.005Z,7.70
2019-05-11T22:35:42.534Z,7.70
2019-05-11T22:38:12.241Z,7.60
2019-05-11T22:40:42.271Z,7.60
2019-05-11T22:43:11.928Z,7.60
2019-05-11T22:45:41.484Z,7.50
2019-05-11T22:48:11.124Z,7.50
2019-05-11T22:50:43.598Z,7.50
2019-05-11T22:53:12.057Z,7.50
2019-05-11T22:55:41.597Z,7.40
2019-05-11T22:58:11.212Z,7.50
2019-05-11T23:00:43.008Z,7.40
2019-05-11T23:03:12.604Z,7.30
2019-05-11T23:05:42.372Z,7.40
2019-05-11T23:08:15.402Z,7.40
2019-05-11T23:10:45.016Z,7.30
2019-05-11T23:13:18.542Z,7.30
2019-05-11T23:15:58.464Z,7.30
2019-05-11T23:18:31.004Z,7.20
2019-05-11T23:21:58.697Z,7.20
2019-05-11T23:24:30.894Z,7.20
2019-05-11T23:27:10.057Z,7.20
2019-05-11T23:29:59.120Z,7.10
2019-05-11T23:32:38.963Z,7.20
2019-05-11T23:35:39.198Z,7.20
2019-05-11T23:38:08.970Z,7.20
2019-05-11T23:40:40.781Z,7.10
2019-05-11T23:43:10.384Z,7.00
2019-05-11T23:45:40.140Z,7.00
2019-05-11T23:48:09.749Z,6.90
2019-05-11T23:50:39.414Z,6.90
2019-05-11T23:53:10.303Z,6.90
2019-05-11T23:55:40.241Z,6.80
2019-05-11T23:58:09.942Z,6.80
